Aeroporto :
LOGIN :

Iscrizione | Disclaimer

   EN    FR    IT 

 










Sommario :    VFR   VFR Marginale   IFR   IFR Intensivo   IFR Molto Intensivo
Visibilità : 
Base nubi : 
>= 8 km
>= 3000ft
5 / 8 km
1000 / 3000 ft
1500m / 5 km
500 / 1000 ft
800 / 1500m
200 / 500 ft
< 800m
< 200 ft
Simboli :   Temporali  Nebbia  Neve Forte  Precipitazioni Forti  Vento > 20 kt
SIGMETs :   Varie  Temporali  Ghiacco  Turbolenza  Onda orograficha  Ceneri Vulcaniche






- Altitudine del aeroporto : 158 ft
- Codice IATA : QAR


EHDL - Deelen Airbase

ULTIMO METAR :
  • 131659Z AUTO VRB02KT 9999 SCT031 OVC038 05/05 Q1000 BLU

METARs OBSOLETI :
  • 131655Z AUTO VRB02KT 6000 BR FEW019 BKN032 BKN036 05/05 Q1000 WHT
  • 131625Z AUTO VRB02KT 9999 OVC040 05/05 Q1000 BLU
  • 131555Z AUTO VRB01KT 9999 FEW015CB BKN046 BKN052 OVC059 05/05 Q1000 BLU
  • 131525Z AUTO 20008KT 150V250 9000 -RA FEW010 SCT015CB BKN027 OVC033 06/05 Q1000 RERAUPRA WHT
  • 131455Z AUTO 18006KT 140V220 9999 -RA FEW015CB SCT016 BKN019 OVC025 06/06 Q1000 RERA REDZ WHT
  • 131425Z AUTO 18003KT 130V210 9999 FEW015CB BKN025 OVC028 07/06 Q1000 BLU

Previsioni scadute.



MetMap, La meteo Aeronautica in un colpo d'occhio ! - Copyright ORBIFLY Dicembre 2007 - Disclaimer

ORBIFLY MET'MAP TEAM :

Programmazione e sviluppo : Alexandra Zaïnal
Concezione e sviluppo : Baudouin d'Aumeries
Co-Programmazione e sviluppo : Marc-Olivier Méhu
Supporto tecnico e logistico : Manuel Goepfert
Aiuto per la traduzione : Arnaldo La Scala

Contatto : metmap@orbifly.com




FONTI E CREDITI :

   NOAA